createdAt,value
2023-02-17T00:00:55.305Z,1016.12
2023-02-17T00:01:55.297Z,1016.08
2023-02-17T00:02:55.296Z,1016.11
2023-02-17T00:03:55.398Z,1016.13
2023-02-17T00:04:55.294Z,1016.05
2023-02-17T00:05:55.282Z,1016.05
2023-02-17T00:06:55.295Z,1016.06
2023-02-17T00:07:55.271Z,1016.12
2023-02-17T00:08:55.272Z,1016.10
2023-02-17T00:09:55.264Z,1016.08
2023-02-17T00:10:55.266Z,1016.06
2023-02-17T00:11:55.256Z,1016.01
2023-02-17T00:12:55.254Z,1015.99
2023-02-17T00:13:56.529Z,1015.99
2023-02-17T00:14:55.248Z,1016.00
2023-02-17T00:15:55.255Z,1016.04
2023-02-17T00:16:55.235Z,1015.99
2023-02-17T00:17:55.238Z,1016.02
2023-02-17T00:18:55.235Z,1016.02
2023-02-17T00:19:55.228Z,1016.04
2023-02-17T00:20:55.216Z,1016.04
2023-02-17T00:21:55.419Z,1016.02
2023-02-17T00:22:55.243Z,1016.00
2023-02-17T00:23:55.207Z,1016.01
2023-02-17T00:24:55.216Z,1015.99
2023-02-17T00:25:55.201Z,1016.02
2023-02-17T00:26:55.197Z,1015.96
2023-02-17T00:27:55.191Z,1015.96
2023-02-17T00:28:55.189Z,1015.92
2023-02-17T00:29:55.241Z,1015.93
2023-02-17T00:30:55.264Z,1015.93
2023-02-17T00:31:55.360Z,1015.96
2023-02-17T00:32:55.175Z,1015.92
2023-02-17T00:33:55.175Z,1015.96
2023-02-17T00:34:55.172Z,1015.93
2023-02-17T00:35:55.164Z,1015.91
2023-02-17T00:36:55.154Z,1015.93
2023-02-17T00:37:55.158Z,1015.93
2023-02-17T00:38:55.201Z,1015.95
2023-02-17T00:39:55.141Z,1015.96
2023-02-17T00:40:55.140Z,1015.95
2023-02-17T00:41:55.134Z,1015.95
2023-02-17T00:42:55.132Z,1015.91
2023-02-17T00:43:55.130Z,1015.96
2023-02-17T00:44:55.121Z,1015.94
2023-02-17T00:45:58.152Z,1015.94
2023-02-17T00:46:55.194Z,1016.01
2023-02-17T00:47:55.114Z,1016.02
2023-02-17T00:48:55.120Z,1015.90
2023-02-17T00:49:55.110Z,1015.96
2023-02-17T00:50:55.111Z,1015.96
2023-02-17T00:51:55.093Z,1015.95
2023-02-17T00:52:55.091Z,1015.92
2023-02-17T00:53:55.091Z,1015.98
2023-02-17T00:54:55.102Z,1015.93
2023-02-17T00:55:55.079Z,1015.92
2023-02-17T00:56:55.074Z,1015.91
2023-02-17T00:57:55.077Z,1015.87
2023-02-17T00:58:55.069Z,1015.91
2023-02-17T00:59:55.068Z,1015.87
2023-02-17T01:00:55.057Z,1015.86
2023-02-17T01:01:55.097Z,1015.88
2023-02-17T01:02:55.050Z,1015.86
2023-02-17T01:03:55.046Z,1015.82
2023-02-17T01:04:55.147Z,1015.85
2023-02-17T01:05:55.041Z,1015.85
2023-02-17T01:06:55.041Z,1015.83
2023-02-17T01:07:55.027Z,1015.77
2023-02-17T01:08:55.032Z,1015.81
2023-02-17T01:09:55.024Z,1015.78
2023-02-17T01:10:55.040Z,1015.78
2023-02-17T01:11:55.017Z,1015.76
2023-02-17T01:12:55.011Z,1015.78
2023-02-17T01:13:55.003Z,1015.81
2023-02-17T01:14:54.998Z,1015.74
2023-02-17T01:15:55.019Z,1015.76
2023-02-17T01:16:54.990Z,1015.72
2023-02-17T01:17:54.992Z,1015.76
2023-02-17T01:18:54.983Z,1015.71
2023-02-17T01:19:54.977Z,1015.72
2023-02-17T01:20:54.977Z,1015.61
2023-02-17T01:21:54.974Z,1015.68
2023-02-17T01:22:54.967Z,1015.68
2023-02-17T01:23:54.962Z,1015.68
2023-02-17T01:24:54.959Z,1015.61
2023-02-17T01:25:54.956Z,1015.63
2023-02-17T01:26:54.968Z,1015.64
2023-02-17T01:27:54.945Z,1015.61
2023-02-17T01:28:54.941Z,1015.61
2023-02-17T01:29:54.963Z,1015.56
2023-02-17T01:30:54.946Z,1015.56
2023-02-17T01:31:55.004Z,1015.52
2023-02-17T01:32:54.978Z,1015.53
2023-02-17T01:33:54.951Z,1015.53
2023-02-17T01:34:54.954Z,1015.49
2023-02-17T01:35:54.948Z,1015.47
2023-02-17T01:36:54.937Z,1015.49
2023-02-17T01:37:54.934Z,1015.51
2023-02-17T01:38:54.933Z,1015.46
2023-02-17T01:39:55.006Z,1015.49
2023-02-17T01:40:54.931Z,1015.40
2023-02-17T01:41:54.898Z,1015.38
2023-02-17T01:42:55.035Z,1015.43
2023-02-17T01:43:54.877Z,1015.41
2023-02-17T01:44:54.871Z,1015.36
2023-02-17T01:45:54.867Z,1015.36
2023-02-17T01:46:54.966Z,1015.32
2023-02-17T01:47:54.862Z,1015.37
2023-02-17T01:48:54.852Z,1015.36
2023-02-17T01:49:54.884Z,1015.33
2023-02-17T01:50:54.870Z,1015.35
2023-02-17T01:51:54.840Z,1015.31
2023-02-17T01:52:54.842Z,1015.33
2023-02-17T01:53:54.834Z,1015.35
2023-02-17T01:54:54.827Z,1015.39
2023-02-17T01:55:54.826Z,1015.37
2023-02-17T01:56:54.819Z,1015.36
2023-02-17T01:57:54.817Z,1015.36
2023-02-17T01:58:54.830Z,1015.34
2023-02-17T01:59:54.810Z,1015.35
2023-02-17T02:00:54.831Z,1015.34
2023-02-17T02:01:54.973Z,1015.30
2023-02-17T02:02:54.966Z,1015.29
2023-02-17T02:03:54.840Z,1015.30
2023-02-17T02:04:54.785Z,1015.26
2023-02-17T02:05:54.781Z,1015.25
2023-02-17T02:06:54.929Z,1015.25
2023-02-17T02:07:54.851Z,1015.21
2023-02-17T02:08:54.781Z,1015.19
2023-02-17T02:09:54.978Z,1015.19
2023-02-17T02:10:54.827Z,1015.17
2023-02-17T02:11:54.771Z,1015.17
2023-02-17T02:12:54.754Z,1015.18
2023-02-17T02:13:54.753Z,1015.08
2023-02-17T02:14:54.764Z,1015.15
2023-02-17T02:15:54.744Z,1015.10
2023-02-17T02:16:54.743Z,1015.08
2023-02-17T02:17:54.736Z,1015.13
2023-02-17T02:18:54.741Z,1015.11
2023-02-17T02:19:54.728Z,1015.14
2023-02-17T02:22:38.469Z,1015.12
2023-02-17T02:23:38.456Z,1015.13
2023-02-17T02:24:38.450Z,1015.12
2023-02-17T02:25:38.445Z,1015.13
2023-02-17T02:26:38.444Z,1015.12
2023-02-17T02:27:38.437Z,1015.13
2023-02-17T02:28:38.435Z,1015.14
2023-02-17T02:29:38.430Z,1015.15
2023-02-17T02:30:38.445Z,1015.14
2023-02-17T02:31:38.446Z,1015.08
2023-02-17T02:32:38.419Z,1015.04
2023-02-17T02:33:38.414Z,1015.05
2023-02-17T02:34:38.418Z,1015.07
2023-02-17T02:35:38.408Z,1015.04
2023-02-17T02:36:38.407Z,1015.01
2023-02-17T02:37:38.400Z,1015.03
2023-02-17T02:38:38.398Z,1015.04
2023-02-17T02:39:38.391Z,1014.99
2023-02-17T02:40:38.392Z,1015.00
2023-02-17T02:41:38.386Z,1015.02
2023-02-17T02:42:38.382Z,1015.05
2023-02-17T02:43:38.381Z,1015.03
2023-02-17T02:44:38.378Z,1015.04
2023-02-17T02:45:38.385Z,1015.02
2023-02-17T02:46:38.391Z,1015.02
2023-02-17T02:47:38.359Z,1015.02
2023-02-17T02:48:38.357Z,1014.94
2023-02-17T02:49:38.354Z,1015.01
2023-02-17T02:50:38.347Z,1014.94
2023-02-17T02:51:38.347Z,1014.95
2023-02-17T02:52:38.340Z,1014.95
2023-02-17T02:53:38.333Z,1014.93
2023-02-17T02:54:38.330Z,1014.90
2023-02-17T02:55:38.335Z,1014.90
2023-02-17T02:56:38.332Z,1014.89
2023-02-17T02:57:38.319Z,1014.89
2023-02-17T02:58:38.333Z,1014.86
2023-02-17T02:59:38.316Z,1014.85
2023-02-17T03:00:38.310Z,1014.84
2023-02-17T03:01:38.374Z,1014.85
2023-02-17T03:02:38.332Z,1014.84
2023-02-17T03:03:38.320Z,1014.80
2023-02-17T03:04:38.291Z,1014.80
2023-02-17T03:05:38.286Z,1014.78
2023-02-17T03:06:38.282Z,1014.78
2023-02-17T03:07:38.285Z,1014.82
2023-02-17T03:08:38.277Z,1014.77
2023-02-17T03:09:38.277Z,1014.76
2023-02-17T03:10:38.268Z,1014.75
2023-02-17T03:11:38.270Z,1014.76
2023-02-17T03:12:38.262Z,1014.78
2023-02-17T03:13:38.253Z,1014.72
2023-02-17T03:14:38.256Z,1014.71
2023-02-17T03:15:38.245Z,1014.68
2023-02-17T03:16:38.309Z,1014.67
2023-02-17T03:17:38.243Z,1014.67
2023-02-17T03:18:38.255Z,1014.66
2023-02-17T03:19:38.228Z,1014.70
2023-02-17T03:20:38.229Z,1014.70
2023-02-17T03:21:38.229Z,1014.73
2023-02-17T03:22:38.215Z,1014.72
2023-02-17T03:23:38.214Z,1014.76
2023-02-17T03:24:38.207Z,1014.67
2023-02-17T03:25:38.204Z,1014.71
2023-02-17T03:26:38.205Z,1014.64
2023-02-17T03:27:38.196Z,1014.62
2023-02-17T03:28:38.200Z,1014.66
2023-02-17T03:29:38.188Z,1014.64
2023-02-17T03:30:38.191Z,1014.67
2023-02-17T03:31:38.295Z,1014.61
2023-02-17T03:32:38.182Z,1014.66
2023-02-17T03:33:38.176Z,1014.69
2023-02-17T03:34:38.191Z,1014.64
2023-02-17T03:35:38.165Z,1014.69
2023-02-17T03:36:38.163Z,1014.70
2023-02-17T03:37:38.178Z,1014.69
2023-02-17T03:38:38.151Z,1014.70
2023-02-17T03:39:38.157Z,1014.75
2023-02-17T03:40:38.145Z,1014.67
2023-02-17T03:41:38.139Z,1014.67
2023-02-17T03:42:38.141Z,1014.67
2023-02-17T03:43:38.138Z,1014.67
2023-02-17T03:44:38.127Z,1014.66
2023-02-17T03:45:38.172Z,1014.65
2023-02-17T03:46:38.125Z,1014.63
2023-02-17T03:47:38.125Z,1014.67
2023-02-17T03:48:38.114Z,1014.65
2023-02-17T03:49:38.109Z,1014.59
2023-02-17T03:50:38.124Z,1014.56
2023-02-17T03:51:38.099Z,1014.56
2023-02-17T03:52:38.096Z,1014.61
2023-02-17T03:53:38.092Z,1014.59
2023-02-17T03:54:38.092Z,1014.55
2023-02-17T03:55:38.091Z,1014.57
2023-02-17T03:56:38.080Z,1014.59
2023-02-17T03:57:38.073Z,1014.64
2023-02-17T03:58:38.078Z,1014.60
2023-02-17T03:59:38.070Z,1014.59
2023-02-17T04:00:38.062Z,1014.59
2023-02-17T04:01:38.128Z,1014.61
2023-02-17T04:02:38.057Z,1014.66
2023-02-17T04:03:38.054Z,1014.71
2023-02-17T04:04:38.052Z,1014.74
2023-02-17T04:05:38.046Z,1014.72
2023-02-17T04:06:38.061Z,1014.69
2023-02-17T04:07:38.040Z,1014.72
2023-02-17T04:08:38.033Z,1014.67
2023-02-17T04:09:38.276Z,1014.66
2023-02-17T04:10:38.025Z,1014.68
2023-02-17T04:11:38.015Z,1014.67
2023-02-17T04:12:38.018Z,1014.71
2023-02-17T04:13:38.005Z,1014.69
2023-02-17T04:14:38.006Z,1014.73
2023-02-17T04:15:38.022Z,1014.71
2023-02-17T04:16:37.996Z,1014.76
2023-02-17T04:17:37.995Z,1014.75
2023-02-17T04:18:38.003Z,1014.72
2023-02-17T04:19:37.989Z,1014.68
2023-02-17T04:20:37.988Z,1014.72
2023-02-17T04:21:37.982Z,1014.74
2023-02-17T04:22:37.991Z,1014.70
2023-02-17T04:23:37.973Z,1014.71
2023-02-17T04:24:37.983Z,1014.73
2023-02-17T04:25:37.959Z,1014.75
2023-02-17T04:26:37.957Z,1014.71
2023-02-17T04:27:37.952Z,1014.76
2023-02-17T04:28:37.951Z,1014.76
2023-02-17T04:29:37.948Z,1014.74
2023-02-17T04:30:37.950Z,1014.71
2023-02-17T04:31:38.094Z,1014.77
2023-02-17T04:32:37.939Z,1014.77
2023-02-17T04:33:38.007Z,1014.80
2023-02-17T04:34:37.933Z,1014.75
2023-02-17T04:35:37.921Z,1014.76
2023-02-17T04:36:37.917Z,1014.80
2023-02-17T04:37:37.920Z,1014.79
2023-02-17T04:38:37.936Z,1014.79
2023-02-17T04:39:37.907Z,1014.78
2023-02-17T04:40:37.904Z,1014.72
2023-02-17T04:41:37.900Z,1014.71
2023-02-17T04:42:37.903Z,1014.73
2023-02-17T04:43:37.901Z,1014.76
2023-02-17T04:44:37.885Z,1014.74
2023-02-17T04:45:37.880Z,1014.80
2023-02-17T04:46:37.878Z,1014.76
2023-02-17T04:47:37.875Z,1014.77
2023-02-17T04:48:37.872Z,1014.75
2023-02-17T04:49:37.866Z,1014.76
2023-02-17T04:50:37.861Z,1014.74
2023-02-17T04:51:37.856Z,1014.70
2023-02-17T04:52:37.852Z,1014.76
2023-02-17T04:53:37.848Z,1014.71
2023-02-17T04:54:37.864Z,1014.76
2023-02-17T04:55:37.845Z,1014.71
2023-02-17T04:56:37.845Z,1014.75
2023-02-17T04:57:37.834Z,1014.72
2023-02-17T04:58:37.833Z,1014.72
2023-02-17T04:59:37.828Z,1014.64
2023-02-17T05:00:37.821Z,1014.66
2023-02-17T05:01:37.867Z,1014.68
2023-02-17T05:02:37.820Z,1014.66
2023-02-17T05:03:37.810Z,1014.62
2023-02-17T05:04:37.855Z,1014.59
2023-02-17T05:05:37.807Z,1014.63
2023-02-17T05:06:37.804Z,1014.58
2023-02-17T05:07:37.798Z,1014.61
2023-02-17T05:08:37.792Z,1014.63
2023-02-17T05:09:37.788Z,1014.63
2023-02-17T05:10:37.818Z,1014.73
2023-02-17T05:11:37.789Z,1014.71
2023-02-17T05:12:37.780Z,1014.71
2023-02-17T05:13:37.774Z,1014.66
2023-02-17T05:14:37.769Z,1014.70
2023-02-17T05:15:37.812Z,1014.70
2023-02-17T05:16:37.760Z,1014.68
2023-02-17T05:17:37.753Z,1014.67
2023-02-17T05:18:37.762Z,1014.74
2023-02-17T05:19:37.751Z,1014.71
2023-02-17T05:20:37.747Z,1014.72
2023-02-17T05:21:37.742Z,1014.74
2023-02-17T05:22:37.749Z,1014.69
2023-02-17T05:23:37.733Z,1014.67
2023-02-17T05:24:38.942Z,1014.63
2023-02-17T05:25:37.730Z,1014.66
2023-02-17T05:26:37.742Z,1014.67
2023-02-17T05:27:37.722Z,1014.59
2023-02-17T05:28:37.720Z,1014.57
2023-02-17T05:29:37.706Z,1014.56
2023-02-17T05:30:37.707Z,1014.55
2023-02-17T05:31:37.835Z,1014.61
2023-02-17T05:32:37.702Z,1014.58
2023-02-17T05:33:37.691Z,1014.59
2023-02-17T05:34:37.692Z,1014.52
2023-02-17T05:35:37.692Z,1014.47
2023-02-17T05:36:37.683Z,1014.49
2023-02-17T05:37:37.703Z,1014.48
2023-02-17T05:38:37.686Z,1014.46
2023-02-17T05:39:37.669Z,1014.50
2023-02-17T05:40:37.670Z,1014.49
2023-02-17T05:41:37.666Z,1014.56
2023-02-17T05:42:37.679Z,1014.61
2023-02-17T05:43:37.656Z,1014.60
2023-02-17T05:44:37.652Z,1014.65
2023-02-17T05:45:37.650Z,1014.66
2023-02-17T05:46:37.717Z,1014.62
2023-02-17T05:47:37.662Z,1014.59
2023-02-17T05:48:37.637Z,1014.58
2023-02-17T05:49:37.643Z,1014.51
2023-02-17T05:50:37.629Z,1014.51
2023-02-17T05:51:37.622Z,1014.49
2023-02-17T05:52:37.622Z,1014.49
2023-02-17T05:53:37.615Z,1014.51
2023-02-17T05:54:37.615Z,1014.46
2023-02-17T05:55:37.608Z,1014.46
2023-02-17T05:56:37.606Z,1014.45
2023-02-17T05:57:37.615Z,1014.46
2023-02-17T05:58:37.618Z,1014.43
2023-02-17T05:59:37.596Z,1014.42
2023-02-17T06:00:37.595Z,1014.41
2023-02-17T06:01:37.596Z,1014.46
2023-02-17T06:02:37.587Z,1014.50
2023-02-17T06:03:37.586Z,1014.50
2023-02-17T06:04:37.776Z,1014.51
2023-02-17T06:05:37.572Z,1014.47
2023-02-17T06:06:37.569Z,1014.48
2023-02-17T06:07:37.564Z,1014.51
2023-02-17T06:08:37.562Z,1014.47
2023-02-17T06:09:37.559Z,1014.51
2023-02-17T06:10:37.557Z,1014.50
2023-02-17T06:11:37.549Z,1014.58
2023-02-17T06:12:37.548Z,1014.57
2023-02-17T06:13:37.545Z,1014.62
2023-02-17T06:14:37.929Z,1014.62
2023-02-17T06:15:37.535Z,1014.59
2023-02-17T06:16:37.532Z,1014.60
2023-02-17T06:17:37.526Z,1014.60
2023-02-17T06:18:37.527Z,1014.54
2023-02-17T06:19:37.522Z,1014.57
2023-02-17T06:20:37.518Z,1014.56
2023-02-17T06:21:37.511Z,1014.48
2023-02-17T06:22:37.512Z,1014.40
2023-02-17T06:23:37.506Z,1014.28
2023-02-17T06:24:37.506Z,1014.37
2023-02-17T06:25:37.495Z,1014.37
2023-02-17T06:26:37.494Z,1014.37
2023-02-17T06:27:37.487Z,1014.42
2023-02-17T06:28:37.488Z,1014.41
2023-02-17T06:29:37.489Z,1014.40
2023-02-17T06:30:37.500Z,1014.42
2023-02-17T06:31:37.698Z,1014.47
2023-02-17T06:32:37.467Z,1014.42
2023-02-17T06:33:37.467Z,1014.43
2023-02-17T06:34:37.459Z,1014.46
2023-02-17T06:35:37.455Z,1014.45
2023-02-17T06:36:37.501Z,1014.45
2023-02-17T06:37:37.458Z,1014.45
2023-02-17T06:38:37.450Z,1014.46
2023-02-17T06:39:37.449Z,1014.40
2023-02-17T06:40:37.438Z,1014.38
2023-02-17T06:41:37.435Z,1014.39
2023-02-17T06:42:37.425Z,1014.45
2023-02-17T06:43:37.426Z,1014.44
2023-02-17T06:44:37.420Z,1014.56
2023-02-17T06:45:37.446Z,1014.55
2023-02-17T06:46:37.429Z,1014.60
2023-02-17T06:47:37.415Z,1014.56
2023-02-17T06:48:37.401Z,1014.59
2023-02-17T06:49:39.847Z,1014.59
2023-02-17T06:50:37.392Z,1014.57
2023-02-17T06:51:37.401Z,1014.41
2023-02-17T06:52:37.387Z,1014.47
2023-02-17T06:53:37.386Z,1014.53
2023-02-17T06:54:37.414Z,1014.53
2023-02-17T06:55:37.379Z,1014.53
2023-02-17T06:56:37.380Z,1014.60
2023-02-17T06:57:37.373Z,1014.60
2023-02-17T06:58:37.428Z,1014.60
2023-02-17T06:59:37.370Z,1014.56
2023-02-17T07:00:37.366Z,1014.48
2023-02-17T07:01:37.396Z,1014.54
2023-02-17T07:02:37.640Z,1014.56
2023-02-17T07:03:37.353Z,1014.50
2023-02-17T07:04:37.344Z,1014.49
2023-02-17T07:05:37.348Z,1014.52
2023-02-17T07:06:37.334Z,1014.41
2023-02-17T07:07:37.335Z,1014.51
2023-02-17T07:08:37.331Z,1014.49
2023-02-17T07:09:37.330Z,1014.60
2023-02-17T07:10:37.324Z,1014.63
2023-02-17T07:11:37.338Z,1014.65
2023-02-17T07:12:37.314Z,1014.67
2023-02-17T07:13:37.311Z,1014.57
2023-02-17T07:14:37.561Z,1014.56
2023-02-17T07:15:37.308Z,1014.47
2023-02-17T07:16:37.371Z,1014.45
2023-02-17T07:17:37.300Z,1014.43
2023-02-17T07:18:37.313Z,1014.45
2023-02-17T07:19:37.290Z,1014.51
2023-02-17T07:20:39.174Z,1014.51
2023-02-17T07:21:37.289Z,1014.53
2023-02-17T07:22:37.277Z,1014.55
2023-02-17T07:23:37.276Z,1014.51
2023-02-17T07:24:37.272Z,1014.54
2023-02-17T07:25:37.276Z,1014.55
2023-02-17T07:26:37.270Z,1014.56
2023-02-17T07:27:37.273Z,1014.54
2023-02-17T07:28:37.256Z,1014.60
2023-02-17T07:29:37.261Z,1014.56
2023-02-17T07:30:37.252Z,1014.56
2023-02-17T07:31:37.314Z,1014.55
2023-02-17T07:32:37.241Z,1014.60
2023-02-17T07:33:37.243Z,1014.61
2023-02-17T07:34:37.309Z,1014.64
2023-02-17T07:35:37.244Z,1014.60
2023-02-17T07:36:37.224Z,1014.63
2023-02-17T07:37:37.222Z,1014.58
2023-02-17T07:38:37.221Z,1014.57
2023-02-17T07:39:37.224Z,1014.64
2023-02-17T07:40:37.208Z,1014.58
2023-02-17T07:41:37.210Z,1014.62
2023-02-17T07:42:37.200Z,1014.67
2023-02-17T07:43:37.198Z,1014.64
2023-02-17T07:44:37.195Z,1014.68
2023-02-17T07:45:37.218Z,1014.70
2023-02-17T07:46:37.186Z,1014.65
2023-02-17T07:47:37.192Z,1014.68
2023-02-17T07:48:37.176Z,1014.62
2023-02-17T07:49:37.174Z,1014.63
2023-02-17T07:50:37.309Z,1014.64
2023-02-17T07:51:37.172Z,1014.64
2023-02-17T07:52:37.173Z,1014.63
2023-02-17T07:53:37.158Z,1014.65
2023-02-17T07:54:37.154Z,1014.61
2023-02-17T07:55:37.153Z,1014.58
2023-02-17T07:56:37.153Z,1014.57
2023-02-17T07:57:37.149Z,1014.66
2023-02-17T07:58:37.137Z,1014.61
2023-02-17T07:59:37.140Z,1014.63
2023-02-17T08:00:37.126Z,1014.65
2023-02-17T08:01:37.132Z,1014.69
2023-02-17T08:02:37.137Z,1014.70
2023-02-17T08:03:37.127Z,1014.69
2023-02-17T08:04:37.141Z,1014.72
2023-02-17T08:05:37.113Z,1014.75
2023-02-17T08:06:37.127Z,1014.74
2023-02-17T08:07:37.112Z,1014.75
2023-02-17T08:08:37.102Z,1014.69
2023-02-17T08:09:37.120Z,1014.73
2023-02-17T08:10:37.091Z,1014.71
2023-02-17T08:11:37.090Z,1014.68
2023-02-17T08:12:37.095Z,1014.74
2023-02-17T08:13:37.093Z,1014.62
2023-02-17T08:14:37.105Z,1014.70
2023-02-17T08:15:37.477Z,1014.65
2023-02-17T08:16:37.127Z,1014.67
2023-02-17T08:17:37.072Z,1014.68
2023-02-17T08:18:37.077Z,1014.55
2023-02-17T08:19:47.634Z,1014.66
2023-02-17T08:20:37.086Z,1014.71
2023-02-17T08:21:37.090Z,1014.72
2023-02-17T08:22:37.076Z,1014.78
2023-02-17T08:23:37.056Z,1014.73
2023-02-17T08:24:37.069Z,1014.75
2023-02-17T08:25:37.096Z,1014.76
2023-02-17T08:26:37.056Z,1014.69
2023-02-17T08:27:37.032Z,1014.76
2023-02-17T08:28:37.036Z,1014.77
2023-02-17T08:29:37.046Z,1014.76
2023-02-17T08:30:37.169Z,1014.79
2023-02-17T08:31:37.190Z,1014.73
2023-02-17T08:32:37.023Z,1014.78
2023-02-17T08:33:37.011Z,1014.76
2023-02-17T08:34:37.013Z,1014.80
2023-02-17T08:35:37.033Z,1014.73
2023-02-17T08:36:36.994Z,1014.71
2023-02-17T08:37:37.011Z,1014.67
2023-02-17T08:38:37.063Z,1014.63
2023-02-17T08:39:37.016Z,1014.58
2023-02-17T08:40:36.980Z,1014.63
2023-02-17T08:41:36.993Z,1014.53
2023-02-17T08:42:36.986Z,1014.65
2023-02-17T08:43:36.986Z,1014.62
2023-02-17T08:44:37.010Z,1014.62
2023-02-17T08:45:37.007Z,1014.60
2023-02-17T08:46:37.013Z,1014.70
2023-02-17T08:47:36.959Z,1014.66
2023-02-17T08:48:37.006Z,1014.65
2023-02-17T08:49:36.954Z,1014.64
2023-02-17T08:50:37.039Z,1014.52
2023-02-17T08:51:36.949Z,1014.52
2023-02-17T08:52:37.000Z,1014.63
2023-02-17T08:53:36.937Z,1014.62
2023-02-17T08:54:36.952Z,1014.58
2023-02-17T08:55:48.566Z,1014.52
2023-02-17T08:56:36.930Z,1014.53
2023-02-17T08:57:36.934Z,1014.53
2023-02-17T08:58:36.917Z,1014.48
2023-02-17T08:59:36.915Z,1014.48
2023-02-17T09:00:36.938Z,1014.53
2023-02-17T09:01:37.001Z,1014.49
2023-02-17T09:02:36.954Z,1014.49
2023-02-17T09:03:36.962Z,1014.52
2023-02-17T09:04:36.985Z,1014.54
2023-02-17T09:05:36.891Z,1014.60
2023-02-17T09:06:36.909Z,1014.62
2023-02-17T09:07:36.895Z,1014.62
2023-02-17T09:08:36.883Z,1014.63
2023-02-17T09:09:36.896Z,1014.64
2023-02-17T09:10:36.904Z,1014.62
2023-02-17T09:11:36.914Z,1014.59
2023-02-17T09:12:36.875Z,1014.60
2023-02-17T09:13:36.895Z,1014.67
2023-02-17T09:14:36.871Z,1014.67
2023-02-17T09:15:36.952Z,1014.58
2023-02-17T09:16:36.857Z,1014.60
2023-02-17T09:17:36.929Z,1014.61
2023-02-17T09:18:36.850Z,1014.57
2023-02-17T09:19:36.865Z,1014.56
2023-02-17T09:20:36.858Z,1014.59
2023-02-17T09:21:36.926Z,1014.60
2023-02-17T09:22:36.851Z,1014.60
2023-02-17T09:23:36.833Z,1014.58
2023-02-17T09:24:36.825Z,1014.66
2023-02-17T09:25:36.893Z,1014.71
2023-02-17T09:26:36.854Z,1014.70
2023-02-17T09:27:36.888Z,1014.68
2023-02-17T09:28:36.811Z,1014.61
2023-02-17T09:29:36.880Z,1014.63
2023-02-17T09:30:36.875Z,1014.63
2023-02-17T09:31:36.947Z,1014.71
2023-02-17T09:32:36.894Z,1014.68
2023-02-17T09:33:36.815Z,1014.69
2023-02-17T09:34:36.796Z,1014.68
2023-02-17T09:35:36.835Z,1014.67
2023-02-17T09:36:36.796Z,1014.78
2023-02-17T09:37:36.788Z,1014.74
2023-02-17T09:38:36.782Z,1014.75
2023-02-17T09:39:36.780Z,1014.70
2023-02-17T09:40:36.795Z,1014.74
2023-02-17T09:41:36.832Z,1014.72
2023-02-17T09:42:36.801Z,1014.83
2023-02-17T09:43:36.766Z,1014.79
2023-02-17T09:44:36.761Z,1014.71
2023-02-17T09:45:36.758Z,1014.78
2023-02-17T09:46:36.905Z,1014.71
2023-02-17T09:47:36.805Z,1014.67
2023-02-17T09:48:36.750Z,1014.68
2023-02-17T09:49:36.778Z,1014.74
2023-02-17T09:50:36.833Z,1014.76
2023-02-17T09:51:36.822Z,1014.74
2023-02-17T09:52:36.762Z,1014.69
2023-02-17T09:53:36.732Z,1014.68
2023-02-17T09:54:36.791Z,1014.73
2023-02-17T09:55:36.727Z,1014.80
2023-02-17T09:56:36.740Z,1014.76
2023-02-17T09:57:36.774Z,1014.76
2023-02-17T09:58:36.729Z,1014.83
2023-02-17T09:59:36.727Z,1014.72
2023-02-17T10:00:36.763Z,1014.74
2023-02-17T10:01:36.710Z,1014.77
2023-02-17T10:02:36.698Z,1014.83
2023-02-17T10:03:36.742Z,1014.84
2023-02-17T10:04:36.742Z,1014.85
2023-02-17T10:05:36.688Z,1014.81
2023-02-17T10:06:36.713Z,1014.76
2023-02-17T10:07:36.693Z,1014.88
2023-02-17T10:08:36.675Z,1014.86
2023-02-17T10:09:36.719Z,1014.93
2023-02-17T10:10:36.669Z,1014.88
2023-02-17T10:11:36.725Z,1014.92
2023-02-17T10:12:36.666Z,1014.96
2023-02-17T10:13:36.683Z,1014.91
2023-02-17T10:14:36.767Z,1014.93
2023-02-17T10:15:36.702Z,1014.90
2023-02-17T10:16:36.764Z,1014.96
2023-02-17T10:17:36.676Z,1014.96
2023-02-17T10:18:36.680Z,1014.95
2023-02-17T10:19:36.657Z,1014.92
2023-02-17T10:20:36.644Z,1014.88
2023-02-17T10:21:36.636Z,1014.82
2023-02-17T10:22:36.714Z,1014.84
2023-02-17T10:23:36.666Z,1014.80
2023-02-17T10:24:36.691Z,1014.85
2023-02-17T10:25:36.625Z,1014.85
2023-02-17T10:26:36.622Z,1014.85
2023-02-17T10:27:36.634Z,1014.83
2023-02-17T10:28:36.665Z,1014.88
2023-02-17T10:29:36.700Z,1014.85
2023-02-17T10:30:36.761Z,1014.89
2023-02-17T10:31:36.831Z,1014.89
2023-02-17T10:32:36.788Z,1014.87
2023-02-17T10:33:36.610Z,1014.90
2023-02-17T10:34:36.730Z,1014.82
2023-02-17T10:35:36.693Z,1014.94
2023-02-17T10:36:36.610Z,1014.95
2023-02-17T10:37:38.700Z,1014.86
2023-02-17T10:38:36.592Z,1014.84
2023-02-17T10:39:36.584Z,1014.85
2023-02-17T10:40:36.577Z,1014.85
2023-02-17T10:41:36.581Z,1014.89
2023-02-17T10:42:36.583Z,1014.86
2023-02-17T10:43:36.573Z,1014.93
2023-02-17T10:44:36.625Z,1014.85
2023-02-17T10:45:36.607Z,1014.90
2023-02-17T10:46:36.613Z,1014.89
2023-02-17T10:47:36.554Z,1014.94
2023-02-17T10:48:36.565Z,1014.93
2023-02-17T10:49:36.551Z,1014.99
2023-02-17T10:50:36.554Z,1015.00
2023-02-17T10:51:36.552Z,1014.94
2023-02-17T10:52:36.540Z,1015.04
2023-02-17T10:53:36.537Z,1014.99
2023-02-17T10:54:36.534Z,1014.94
2023-02-17T10:55:36.541Z,1014.89
2023-02-17T10:56:36.525Z,1014.99
2023-02-17T10:57:36.521Z,1014.90
2023-02-17T10:58:36.520Z,1014.92
2023-02-17T10:59:36.520Z,1014.81
2023-02-17T11:00:36.555Z,1014.84
2023-02-17T11:01:36.513Z,1014.81
2023-02-17T11:02:36.528Z,1014.78
2023-02-17T11:03:36.543Z,1014.79
2023-02-17T11:04:36.505Z,1014.70
2023-02-17T11:05:36.498Z,1014.72
2023-02-17T11:06:36.500Z,1014.75
2023-02-17T11:07:36.502Z,1014.71
2023-02-17T11:08:36.509Z,1014.72
2023-02-17T11:09:36.485Z,1014.77
2023-02-17T11:10:36.484Z,1014.76
2023-02-17T11:11:36.482Z,1014.76
2023-02-17T11:12:36.481Z,1014.80
2023-02-17T11:13:36.482Z,1014.76
2023-02-17T11:14:36.476Z,1014.82
2023-02-17T11:15:36.470Z,1014.85
2023-02-17T11:16:36.484Z,1014.86
2023-02-17T11:17:36.470Z,1014.78
2023-02-17T11:18:36.510Z,1014.81
2023-02-17T11:19:36.473Z,1014.73
2023-02-17T11:20:36.656Z,1014.80
2023-02-17T11:21:36.454Z,1014.86
2023-02-17T11:22:36.454Z,1014.84
2023-02-17T11:23:36.482Z,1014.73
2023-02-17T11:24:36.543Z,1014.78
2023-02-17T11:25:36.441Z,1014.72
2023-02-17T11:26:36.523Z,1014.67
2023-02-17T11:27:36.436Z,1014.63
2023-02-17T11:28:36.434Z,1014.68
2023-02-17T11:29:36.473Z,1014.64
2023-02-17T11:30:36.428Z,1014.59
2023-02-17T11:31:36.512Z,1014.63
2023-02-17T11:32:36.430Z,1014.55
2023-02-17T11:33:36.432Z,1014.53
2023-02-17T11:34:36.467Z,1014.47
2023-02-17T11:35:36.411Z,1014.40
2023-02-17T11:36:36.412Z,1014.40
2023-02-17T11:37:36.575Z,1014.47
2023-02-17T11:38:36.406Z,1014.46
2023-02-17T11:39:36.405Z,1014.57
2023-02-17T11:40:36.399Z,1014.46
2023-02-17T11:41:36.394Z,1014.40
2023-02-17T11:42:36.402Z,1014.47
2023-02-17T11:43:36.413Z,1014.46
2023-02-17T11:44:36.391Z,1014.40
2023-02-17T11:45:36.430Z,1014.44
2023-02-17T11:46:36.390Z,1014.37
2023-02-17T11:47:36.382Z,1014.34
2023-02-17T11:48:36.382Z,1014.30
2023-02-17T11:49:36.382Z,1014.47
2023-02-17T11:50:41.813Z,1014.32
2023-02-17T11:51:36.379Z,1014.37
2023-02-17T11:52:36.377Z,1014.42
2023-02-17T11:53:36.366Z,1014.44
2023-02-17T11:54:36.397Z,1014.42
2023-02-17T11:55:36.400Z,1014.48
2023-02-17T11:56:36.408Z,1014.46
2023-02-17T11:57:36.388Z,1014.46
2023-02-17T11:58:36.376Z,1014.44
2023-02-17T11:59:36.346Z,1014.43
2023-02-17T12:00:36.345Z,1014.43
2023-02-17T12:01:36.545Z,1014.52
2023-02-17T12:02:36.363Z,1014.40
2023-02-17T12:03:36.967Z,1014.45
2023-02-17T12:04:36.414Z,1014.38
2023-02-17T12:05:36.361Z,1014.57
2023-02-17T12:06:36.486Z,1014.52
2023-02-17T12:07:36.320Z,1014.51